Terminal Aerodrome Forecast
Issued by NWS Melbourne, FL

Current Version | Previous Version | Text Only | Print | Product List | Glossary On
Versions: 1 2 3 4 5 6 7 8 9 10 11 12
866
FTUS42 KMLB 231725
TAFVRB
TAF
KVRB 231725Z 2318/2418 19014G23KT P6SM FEW025 SCT040 BKN250
     FM240000 20011KT P6SM SCT040 BKN250
     FM241200 19013G20KT P6SM SCT025 BKN060
     FM241500 22015G23KT P6SM VCSH SCT025 BKN060
      TEMPO 2416/2418 VRB15G30KT 2SM TSRA BKN015 BKN025CB=

USA.gov is the U.S. government's official web portal to all federal, state and local government web resources and services.